createdAt,value
2017-05-02T00:00:12.676Z,19.10
2017-05-02T00:01:12.619Z,19.10
2017-05-02T00:02:11.899Z,19.10
2017-05-02T00:03:12.075Z,19.10
2017-05-02T00:04:11.171Z,19.10
2017-05-02T00:05:11.316Z,19.10
2017-05-02T00:06:12.310Z,19.10
2017-05-02T00:07:12.065Z,19.10
2017-05-02T00:08:09.605Z,19.10
2017-05-02T00:09:11.989Z,19.10
2017-05-02T00:10:12.267Z,19.10
2017-05-02T00:11:12.037Z,19.10
2017-05-02T00:12:11.850Z,19.10
2017-05-02T00:13:12.158Z,19.10
2017-05-02T00:14:11.960Z,19.10
2017-05-02T00:15:12.140Z,19.10
2017-05-02T00:16:11.852Z,19.10
2017-05-02T00:17:12.557Z,19.10
2017-05-02T00:18:12.728Z,19.10
2017-05-02T00:19:11.736Z,19.10
2017-05-02T00:20:12.125Z,19.10
2017-05-02T00:21:11.902Z,19.10
2017-05-02T00:22:11.918Z,19.10
2017-05-02T00:23:11.567Z,19.10
2017-05-02T00:24:11.819Z,19.10
2017-05-02T00:25:10.101Z,19.10
2017-05-02T00:26:12.082Z,19.10
2017-05-02T00:27:11.176Z,19.10
2017-05-02T00:28:12.157Z,19.10
2017-05-02T00:29:11.937Z,19.10
2017-05-02T00:30:11.080Z,19.10
2017-05-02T00:31:11.113Z,19.10
2017-05-02T00:32:11.837Z,19.10
2017-05-02T00:33:11.788Z,19.10
2017-05-02T00:34:11.979Z,19.10
2017-05-02T00:35:11.150Z,19.10
2017-05-02T00:36:11.831Z,19.10
2017-05-02T00:37:11.779Z,19.10
2017-05-02T00:38:11.965Z,19.10
2017-05-02T00:39:14.059Z,19.10
2017-05-02T00:40:11.557Z,19.10
2017-05-02T00:41:12.263Z,19.10
2017-05-02T00:42:11.946Z,19.10
2017-05-02T00:43:12.432Z,19.10
2017-05-02T00:44:11.809Z,19.10
2017-05-02T00:45:10.628Z,19.10
2017-05-02T00:46:12.853Z,19.10
2017-05-02T00:47:11.721Z,19.10
2017-05-02T00:48:12.411Z,19.10
2017-05-02T00:49:12.224Z,19.10
2017-05-02T00:50:11.965Z,19.10
2017-05-02T00:51:11.561Z,19.10
2017-05-02T00:52:11.706Z,19.10
2017-05-02T00:53:13.141Z,19.10
2017-05-02T00:54:12.907Z,19.10
2017-05-02T00:55:14.303Z,19.10
2017-05-02T00:56:11.390Z,19.10
2017-05-02T00:57:12.459Z,19.10
2017-05-02T00:58:12.012Z,19.10
2017-05-02T00:59:12.888Z,19.10
2017-05-02T01:00:12.035Z,19.10
2017-05-02T01:01:11.175Z,19.10
2017-05-02T01:02:12.012Z,19.10
2017-05-02T01:03:11.633Z,19.10
2017-05-02T01:04:13.397Z,19.10
2017-05-02T01:05:13.259Z,19.10
2017-05-02T01:06:11.357Z,19.10
2017-05-02T01:07:12.460Z,19.10
2017-05-02T01:08:12.127Z,19.10
2017-05-02T01:09:11.737Z,19.10
2017-05-02T01:10:12.310Z,19.10
2017-05-02T01:11:12.093Z,19.10
2017-05-02T01:12:11.839Z,19.10
2017-05-02T01:13:12.792Z,19.10
2017-05-02T01:14:11.732Z,19.10
2017-05-02T01:15:11.879Z,19.10
2017-05-02T01:16:14.442Z,19.10
2017-05-02T01:17:12.687Z,19.10
2017-05-02T01:18:12.670Z,19.10
2017-05-02T01:19:12.865Z,19.10
2017-05-02T01:20:12.072Z,19.00
2017-05-02T01:21:12.826Z,19.10
2017-05-02T01:22:13.487Z,19.10
2017-05-02T01:23:12.374Z,19.10
2017-05-02T01:24:12.005Z,19.10
2017-05-02T01:25:11.241Z,19.10
2017-05-02T01:26:09.075Z,19.10
2017-05-02T01:27:10.110Z,19.10
2017-05-02T01:28:11.948Z,19.10
2017-05-02T01:29:12.974Z,19.10
2017-05-02T01:30:12.710Z,19.10
2017-05-02T01:31:11.870Z,19.10
2017-05-02T01:32:12.784Z,19.10
2017-05-02T01:33:12.484Z,19.10
2017-05-02T01:34:11.621Z,19.10
2017-05-02T01:35:12.349Z,19.10
2017-05-02T01:36:12.267Z,19.10
2017-05-02T01:37:11.733Z,19.10
2017-05-02T01:38:13.473Z,19.10
2017-05-02T01:39:12.184Z,19.10
2017-05-02T01:40:11.751Z,19.10
2017-05-02T01:41:12.565Z,19.10
2017-05-02T01:42:12.249Z,19.10
2017-05-02T01:43:11.523Z,19.10
2017-05-02T01:44:11.664Z,19.10
2017-05-02T01:45:12.088Z,19.10
2017-05-02T01:46:11.766Z,19.10
2017-05-02T01:47:10.124Z,19.10
2017-05-02T01:48:12.296Z,19.10
2017-05-02T01:49:12.519Z,19.10
2017-05-02T01:50:11.680Z,19.10
2017-05-02T01:51:12.804Z,19.10
2017-05-02T01:52:11.794Z,19.10
2017-05-02T01:53:12.016Z,19.10
2017-05-02T01:54:09.709Z,19.10
2017-05-02T01:55:12.243Z,19.10
2017-05-02T01:56:11.833Z,19.10
2017-05-02T01:57:12.574Z,19.10
2017-05-02T01:58:12.210Z,19.10
2017-05-02T01:59:11.301Z,19.00
2017-05-02T02:00:12.802Z,19.00
2017-05-02T02:01:12.466Z,19.10
2017-05-02T02:02:08.733Z,19.10
2017-05-02T02:03:12.446Z,19.00
2017-05-02T02:04:10.143Z,19.10
2017-05-02T02:05:13.279Z,19.10
2017-05-02T02:06:11.378Z,19.00
2017-05-02T02:07:14.339Z,19.00
2017-05-02T02:08:12.015Z,19.00
2017-05-02T02:09:11.720Z,19.10
2017-05-02T02:10:12.494Z,19.10
2017-05-02T02:11:13.218Z,19.10
2017-05-02T02:12:11.844Z,19.00
2017-05-02T02:13:12.501Z,19.00
2017-05-02T02:14:11.708Z,19.00
2017-05-02T02:15:13.604Z,19.00
2017-05-02T02:16:12.232Z,19.00
2017-05-02T02:17:12.895Z,19.00
2017-05-02T02:18:11.702Z,19.00
2017-05-02T02:19:12.309Z,19.00
2017-05-02T02:20:11.429Z,19.00
2017-05-02T02:21:11.545Z,19.00
2017-05-02T02:22:12.164Z,19.00
2017-05-02T02:23:11.888Z,19.00
2017-05-02T02:24:11.913Z,19.00
2017-05-02T02:25:12.135Z,19.00
2017-05-02T02:26:12.031Z,19.00
2017-05-02T02:27:09.679Z,19.00
2017-05-02T02:28:11.930Z,19.00
2017-05-02T02:29:11.695Z,19.00
2017-05-02T02:30:11.838Z,19.00
2017-05-02T02:31:12.553Z,19.00
2017-05-02T02:32:11.798Z,19.00
2017-05-02T02:33:12.587Z,19.00
2017-05-02T02:34:12.394Z,19.00
2017-05-02T02:35:12.084Z,19.00
2017-05-02T02:36:13.924Z,19.00
2017-05-02T02:37:12.673Z,19.00
2017-05-02T02:38:13.478Z,19.00
2017-05-02T02:39:12.174Z,19.00
2017-05-02T02:40:11.765Z,19.00
2017-05-02T02:41:12.662Z,19.00
2017-05-02T02:42:12.380Z,19.00
2017-05-02T02:43:09.221Z,19.00
2017-05-02T02:44:11.722Z,19.00
2017-05-02T02:45:12.840Z,19.00
2017-05-02T02:46:12.902Z,19.00
2017-05-02T02:47:12.066Z,19.00
2017-05-02T02:48:12.954Z,19.00
2017-05-02T02:49:11.890Z,19.00
2017-05-02T02:50:11.922Z,19.00
2017-05-02T02:51:11.772Z,19.00
2017-05-02T02:52:12.490Z,19.00
2017-05-02T02:53:12.138Z,19.00
2017-05-02T02:54:11.296Z,19.00
2017-05-02T02:55:11.934Z,19.00
2017-05-02T02:56:11.145Z,19.00
2017-05-02T02:57:11.944Z,19.00
2017-05-02T02:58:11.751Z,19.00
2017-05-02T02:59:12.727Z,19.00
2017-05-02T03:00:11.967Z,19.00
2017-05-02T03:01:11.674Z,19.00
2017-05-02T03:02:12.492Z,19.00
2017-05-02T03:03:11.742Z,19.00
2017-05-02T03:04:12.480Z,19.00
2017-05-02T03:05:12.911Z,19.00
2017-05-02T03:06:12.632Z,19.00
2017-05-02T03:07:13.087Z,19.00
2017-05-02T03:08:11.279Z,19.00
2017-05-02T03:09:12.908Z,19.00
2017-05-02T03:10:09.874Z,19.00
2017-05-02T03:11:11.989Z,19.00
2017-05-02T03:12:11.906Z,19.00
2017-05-02T03:13:12.223Z,19.00
2017-05-02T03:14:11.780Z,19.00
2017-05-02T03:15:10.449Z,19.00
2017-05-02T03:16:12.625Z,19.00
2017-05-02T03:17:11.808Z,19.00
2017-05-02T03:18:12.659Z,19.00
2017-05-02T03:19:11.841Z,19.00
2017-05-02T03:20:11.615Z,19.00
2017-05-02T03:21:11.997Z,19.00
2017-05-02T03:22:11.691Z,19.00
2017-05-02T03:23:12.249Z,19.00
2017-05-02T03:24:11.581Z,19.00
2017-05-02T03:25:12.257Z,19.00
2017-05-02T03:26:12.530Z,19.00
2017-05-02T03:27:12.260Z,19.00
2017-05-02T03:28:11.530Z,19.00
2017-05-02T03:29:10.225Z,19.00
2017-05-02T03:30:12.531Z,19.00
2017-05-02T03:31:12.137Z,19.00
2017-05-02T03:32:13.732Z,19.00
2017-05-02T03:33:12.672Z,19.00
2017-05-02T03:34:11.728Z,19.00
2017-05-02T03:35:12.483Z,19.00
2017-05-02T03:36:09.889Z,19.00
2017-05-02T03:37:11.577Z,19.00
2017-05-02T03:38:12.471Z,19.00
2017-05-02T03:39:11.589Z,19.00
2017-05-02T03:40:11.679Z,19.00
2017-05-02T03:41:12.328Z,19.00
2017-05-02T03:42:13.111Z,19.00
2017-05-02T03:43:09.949Z,19.00
2017-05-02T03:44:11.930Z,19.00
2017-05-02T03:45:11.783Z,19.00
2017-05-02T03:46:14.775Z,19.00
2017-05-02T03:47:10.840Z,19.00
2017-05-02T03:48:11.872Z,19.00
2017-05-02T03:49:12.080Z,19.00
2017-05-02T03:50:12.910Z,19.00
2017-05-02T03:51:13.819Z,19.00
2017-05-02T03:52:12.543Z,19.00
2017-05-02T03:53:11.706Z,19.00
2017-05-02T03:54:12.508Z,19.00
2017-05-02T03:55:13.293Z,19.00
2017-05-02T03:56:13.134Z,19.00
2017-05-02T03:57:11.220Z,19.00
2017-05-02T03:58:11.440Z,19.00
2017-05-02T03:59:11.590Z,19.00
2017-05-02T04:00:11.753Z,19.00
2017-05-02T04:01:12.162Z,19.00
2017-05-02T04:02:11.176Z,19.00
2017-05-02T04:03:13.097Z,19.00
2017-05-02T04:04:12.056Z,19.00
2017-05-02T04:05:08.271Z,19.00
2017-05-02T04:06:11.853Z,19.00
2017-05-02T04:07:12.019Z,19.00
2017-05-02T04:08:12.185Z,19.00
2017-05-02T04:09:11.875Z,19.00
2017-05-02T04:10:12.636Z,19.00
2017-05-02T04:11:11.824Z,19.00
2017-05-02T04:12:11.906Z,19.00
2017-05-02T04:13:12.987Z,19.00
2017-05-02T04:14:14.590Z,19.00
2017-05-02T04:15:11.686Z,19.00
2017-05-02T04:16:13.471Z,19.00
2017-05-02T04:17:12.505Z,19.00
2017-05-02T04:18:12.290Z,19.00
2017-05-02T04:19:09.127Z,19.00
2017-05-02T04:20:12.619Z,19.00
2017-05-02T04:21:12.284Z,19.00
2017-05-02T04:22:12.233Z,19.00
2017-05-02T04:23:11.278Z,19.00
2017-05-02T04:24:13.522Z,19.00
2017-05-02T04:25:15.174Z,19.00
2017-05-02T04:26:11.738Z,19.00
2017-05-02T04:27:12.501Z,19.00
2017-05-02T04:28:12.297Z,19.00
2017-05-02T04:29:11.335Z,19.00
2017-05-02T04:30:13.264Z,19.00
2017-05-02T04:31:11.577Z,19.00
2017-05-02T04:32:13.682Z,19.00
2017-05-02T04:33:12.444Z,19.00
2017-05-02T04:34:10.179Z,19.00
2017-05-02T04:35:12.650Z,19.00
2017-05-02T04:36:12.493Z,19.00
2017-05-02T04:37:12.164Z,18.90
2017-05-02T04:38:12.024Z,19.00
2017-05-02T04:39:12.917Z,19.00
2017-05-02T04:40:12.698Z,19.00
2017-05-02T04:41:11.888Z,19.00
2017-05-02T04:42:12.276Z,19.00
2017-05-02T04:43:13.312Z,19.00
2017-05-02T04:44:11.936Z,19.00
2017-05-02T04:45:11.103Z,19.00
2017-05-02T04:46:11.185Z,19.00
2017-05-02T04:47:11.280Z,19.00
2017-05-02T04:48:11.516Z,19.00
2017-05-02T04:49:11.659Z,19.00
2017-05-02T04:50:11.802Z,19.00
2017-05-02T04:51:12.524Z,19.00
2017-05-02T04:52:12.159Z,19.00
2017-05-02T04:53:12.252Z,19.00
2017-05-02T04:54:11.262Z,19.00
2017-05-02T04:55:11.541Z,19.00
2017-05-02T04:56:11.808Z,19.00
2017-05-02T04:57:11.843Z,19.00
2017-05-02T04:58:12.578Z,19.00
2017-05-02T04:59:11.670Z,19.00
2017-05-02T05:00:12.688Z,19.00
2017-05-02T05:01:11.674Z,19.00
2017-05-02T05:02:12.355Z,19.00
2017-05-02T05:03:11.284Z,19.00
2017-05-02T05:04:13.195Z,19.00
2017-05-02T05:05:11.685Z,19.00
2017-05-02T05:06:12.569Z,19.00
2017-05-02T05:07:09.691Z,19.00
2017-05-02T05:08:11.956Z,18.90
2017-05-02T05:09:11.593Z,19.00
2017-05-02T05:10:11.770Z,19.00
2017-05-02T05:11:12.403Z,19.00
2017-05-02T05:12:12.388Z,19.00
2017-05-02T05:13:12.472Z,19.00
2017-05-02T05:14:10.041Z,19.00
2017-05-02T05:15:11.977Z,19.00
2017-05-02T05:16:11.247Z,19.00
2017-05-02T05:17:12.024Z,19.00
2017-05-02T05:18:09.707Z,19.00
2017-05-02T05:19:12.711Z,19.00
2017-05-02T05:20:12.498Z,18.90
2017-05-02T05:21:10.672Z,19.00
2017-05-02T05:22:12.432Z,19.00
2017-05-02T05:23:12.058Z,19.00
2017-05-02T05:24:11.537Z,19.00
2017-05-02T05:25:12.553Z,19.00
2017-05-02T05:26:11.630Z,19.00
2017-05-02T05:27:12.377Z,19.00
2017-05-02T05:28:09.906Z,19.00
2017-05-02T05:29:12.050Z,19.00
2017-05-02T05:30:11.837Z,19.00
2017-05-02T05:31:12.819Z,18.90
2017-05-02T05:32:10.500Z,19.00
2017-05-02T05:33:11.687Z,18.90
2017-05-02T05:34:12.516Z,19.00
2017-05-02T05:35:12.442Z,18.90
2017-05-02T05:36:11.817Z,19.00
2017-05-02T05:37:11.659Z,19.00
2017-05-02T05:38:11.695Z,19.00
2017-05-02T05:39:10.371Z,19.00
2017-05-02T05:40:12.614Z,19.00
2017-05-02T05:41:11.812Z,19.00
2017-05-02T05:42:10.522Z,19.00
2017-05-02T05:43:14.146Z,19.00
2017-05-02T05:44:11.715Z,19.00
2017-05-02T05:45:13.018Z,19.00
2017-05-02T05:46:11.112Z,19.00
2017-05-02T05:47:11.384Z,19.00
2017-05-02T05:48:11.486Z,19.00
2017-05-02T05:49:13.303Z,19.00
2017-05-02T05:50:11.553Z,18.90
2017-05-02T05:51:13.443Z,18.90
2017-05-02T05:52:11.489Z,19.00
2017-05-02T05:53:09.161Z,19.00
2017-05-02T05:54:11.976Z,19.00
2017-05-02T05:55:12.277Z,19.00
2017-05-02T05:56:11.896Z,19.00
2017-05-02T05:57:12.843Z,19.00
2017-05-02T05:58:12.825Z,19.00
2017-05-02T05:59:14.973Z,19.00
2017-05-02T06:00:11.686Z,18.90
2017-05-02T06:01:13.498Z,19.00
2017-05-02T06:02:11.567Z,19.00
2017-05-02T06:03:12.885Z,19.00
2017-05-02T06:04:11.842Z,19.00
2017-05-02T06:05:12.599Z,19.00
2017-05-02T06:06:12.784Z,19.00
2017-05-02T06:07:11.901Z,19.00
2017-05-02T06:08:11.927Z,19.00
2017-05-02T06:09:11.128Z,19.00
2017-05-02T06:10:11.067Z,19.00
2017-05-02T06:11:12.878Z,19.00
2017-05-02T06:12:12.014Z,19.00
2017-05-02T06:13:12.264Z,19.00
2017-05-02T06:14:11.328Z,19.00
2017-05-02T06:15:12.297Z,19.00
2017-05-02T06:16:09.585Z,19.00
2017-05-02T06:17:11.495Z,18.90
2017-05-02T06:18:11.358Z,18.90
2017-05-02T06:19:09.833Z,19.00
2017-05-02T06:20:11.482Z,18.90
2017-05-02T06:21:12.293Z,19.00
2017-05-02T06:22:09.636Z,19.00
2017-05-02T06:23:11.912Z,19.00
2017-05-02T06:24:13.096Z,19.00
2017-05-02T06:25:11.258Z,19.00
2017-05-02T06:26:11.335Z,19.00
2017-05-02T06:27:11.845Z,19.00
2017-05-02T06:28:14.625Z,19.00
2017-05-02T06:29:12.182Z,19.00
2017-05-02T06:30:12.004Z,19.00
2017-05-02T06:31:12.071Z,19.00
2017-05-02T06:32:11.249Z,19.00
2017-05-02T06:33:12.222Z,19.00
2017-05-02T06:34:12.084Z,19.00
2017-05-02T06:35:11.065Z,19.00
2017-05-02T06:36:12.260Z,19.00
2017-05-02T06:37:11.305Z,19.00
2017-05-02T06:38:11.574Z,19.00
2017-05-02T06:39:12.682Z,19.00
2017-05-02T06:40:11.884Z,19.00
2017-05-02T06:41:12.039Z,18.90
2017-05-02T06:42:11.562Z,19.00
2017-05-02T06:43:11.795Z,18.90
2017-05-02T06:44:12.224Z,18.90
2017-05-02T06:45:09.656Z,18.90
2017-05-02T06:46:11.896Z,18.90
2017-05-02T06:47:12.014Z,18.90
2017-05-02T06:48:11.274Z,18.90
2017-05-02T06:49:11.109Z,19.00
2017-05-02T06:50:14.228Z,18.90
2017-05-02T06:51:11.920Z,19.00
2017-05-02T06:52:11.212Z,18.90
2017-05-02T06:53:11.324Z,19.00
2017-05-02T06:54:12.266Z,19.00
2017-05-02T06:55:11.440Z,19.00
2017-05-02T06:56:11.689Z,18.90
2017-05-02T06:57:11.787Z,18.90
2017-05-02T06:58:10.335Z,19.00
2017-05-02T06:59:11.033Z,19.00
2017-05-02T07:00:11.226Z,19.00
2017-05-02T07:01:11.993Z,19.10
2017-05-02T07:02:12.820Z,19.10
2017-05-02T07:03:11.891Z,19.10
2017-05-02T07:04:11.998Z,19.10
2017-05-02T07:05:11.753Z,19.10
2017-05-02T07:06:12.013Z,19.20
2017-05-02T07:07:11.600Z,19.20
2017-05-02T07:08:12.354Z,19.20
2017-05-02T07:09:11.495Z,19.20
2017-05-02T07:10:11.698Z,19.20
2017-05-02T07:11:11.734Z,19.20
2017-05-02T07:12:13.606Z,19.20
2017-05-02T07:13:11.592Z,19.20
2017-05-02T07:14:12.550Z,19.20
2017-05-02T07:15:11.523Z,19.20
2017-05-02T07:16:12.090Z,19.30
2017-05-02T07:17:09.026Z,19.30
2017-05-02T07:18:09.331Z,19.30
2017-05-02T07:19:11.860Z,19.30
2017-05-02T07:20:12.038Z,19.30
2017-05-02T07:21:08.771Z,19.30
2017-05-02T07:22:11.532Z,19.30
2017-05-02T07:23:12.028Z,19.30
2017-05-02T07:24:11.104Z,19.30
2017-05-02T07:25:11.054Z,19.30
2017-05-02T07:26:11.841Z,19.30
2017-05-02T07:27:11.914Z,19.30
2017-05-02T07:28:12.252Z,19.30
2017-05-02T07:29:11.353Z,19.30
2017-05-02T07:30:11.392Z,19.30
2017-05-02T07:31:11.658Z,19.30
2017-05-02T07:32:12.529Z,19.30
2017-05-02T07:33:12.889Z,19.30
2017-05-02T07:34:12.042Z,19.30
2017-05-02T07:35:12.341Z,19.30
2017-05-02T07:36:12.259Z,19.30
2017-05-02T07:37:11.361Z,19.30
2017-05-02T07:38:09.656Z,19.30
2017-05-02T07:39:11.280Z,19.30
2017-05-02T07:40:12.270Z,19.30
2017-05-02T07:41:11.276Z,19.30
2017-05-02T07:42:11.575Z,19.30
2017-05-02T07:43:11.890Z,19.30
2017-05-02T07:44:12.950Z,19.40
2017-05-02T07:45:14.002Z,19.30
2017-05-02T07:46:11.731Z,19.30
2017-05-02T07:47:10.189Z,19.30
2017-05-02T07:48:12.875Z,19.40
2017-05-02T07:49:12.596Z,19.30
2017-05-02T07:50:12.484Z,19.40
2017-05-02T07:51:12.773Z,19.40
2017-05-02T07:52:12.328Z,19.40
2017-05-02T07:53:11.438Z,19.40
2017-05-02T07:54:12.431Z,19.40
2017-05-02T07:55:12.584Z,19.40
2017-05-02T07:56:12.694Z,19.40
2017-05-02T07:57:12.614Z,19.40
2017-05-02T07:58:11.667Z,19.40
2017-05-02T07:59:12.289Z,19.40
2017-05-02T08:00:12.182Z,19.40
2017-05-02T08:01:11.250Z,19.40
2017-05-02T08:02:13.033Z,19.40
2017-05-02T08:03:11.238Z,19.40
2017-05-02T08:04:11.423Z,19.40
2017-05-02T08:05:11.620Z,19.40
2017-05-02T08:06:13.475Z,19.40
2017-05-02T08:07:12.019Z,19.40
2017-05-02T08:08:12.869Z,19.40
2017-05-02T08:09:12.680Z,19.40
2017-05-02T08:10:12.229Z,19.40
2017-05-02T08:11:12.345Z,19.40
2017-05-02T08:12:12.157Z,19.40
2017-05-02T08:13:12.058Z,19.50
2017-05-02T08:14:11.713Z,19.40
2017-05-02T08:15:11.960Z,19.40
2017-05-02T08:16:13.090Z,19.40
2017-05-02T08:17:14.116Z,19.40
2017-05-02T08:18:11.880Z,19.40
2017-05-02T08:19:12.143Z,19.40
2017-05-02T08:20:11.876Z,19.40
2017-05-02T08:21:12.799Z,19.40
2017-05-02T08:22:12.031Z,19.40
2017-05-02T08:23:11.865Z,19.40
2017-05-02T08:24:12.354Z,19.40
2017-05-02T08:25:09.099Z,19.40
2017-05-02T08:26:12.610Z,19.40
2017-05-02T08:27:13.510Z,19.40
2017-05-02T08:28:11.441Z,19.40
2017-05-02T08:29:12.324Z,19.40
2017-05-02T08:30:12.036Z,19.40
2017-05-02T08:31:11.869Z,19.40
2017-05-02T08:32:09.714Z,19.00
2017-05-02T08:33:11.374Z,18.50
2017-05-02T08:34:15.037Z,18.00
2017-05-02T08:35:11.590Z,17.60
2017-05-02T08:36:13.359Z,17.60
2017-05-02T08:37:11.954Z,17.70
2017-05-02T08:38:11.026Z,17.80
2017-05-02T08:39:14.127Z,17.90
2017-05-02T08:40:12.801Z,18.00
2017-05-02T08:41:13.545Z,18.20
2017-05-02T08:42:13.167Z,18.30
2017-05-02T08:43:11.801Z,18.40
2017-05-02T08:44:12.798Z,18.50
2017-05-02T08:45:11.615Z,18.60
2017-05-02T08:46:12.785Z,18.70
2017-05-02T08:47:08.934Z,18.70
2017-05-02T08:48:11.698Z,18.80
2017-05-02T08:49:12.262Z,18.80
2017-05-02T08:50:11.431Z,18.90
2017-05-02T08:51:12.274Z,18.90
2017-05-02T08:52:11.916Z,18.90
2017-05-02T08:53:12.160Z,19.00
2017-05-02T08:54:15.015Z,19.00
2017-05-02T08:55:12.731Z,19.00
2017-05-02T08:56:11.961Z,19.00
2017-05-02T08:57:11.093Z,19.00
2017-05-02T08:58:11.901Z,19.00
2017-05-02T08:59:08.278Z,19.00
2017-05-02T09:00:11.910Z,19.10
2017-05-02T09:01:11.891Z,19.10
2017-05-02T09:02:10.350Z,19.10
2017-05-02T09:03:12.278Z,19.10
2017-05-02T09:04:12.268Z,19.10
2017-05-02T09:05:09.927Z,19.10
2017-05-02T09:06:10.019Z,19.10
2017-05-02T09:07:11.822Z,19.10
2017-05-02T09:08:12.992Z,19.10
2017-05-02T09:09:11.817Z,19.10
2017-05-02T09:10:10.248Z,19.20
2017-05-02T09:11:11.093Z,19.20
2017-05-02T09:12:11.261Z,19.20
2017-05-02T09:13:12.702Z,19.20
2017-05-02T09:14:11.925Z,19.20
2017-05-02T09:15:12.801Z,19.20
2017-05-02T09:16:14.341Z,19.20
2017-05-02T09:17:12.196Z,19.20
2017-05-02T09:18:18.170Z,19.20
2017-05-02T09:19:14.035Z,19.20
2017-05-02T09:20:11.814Z,19.20
2017-05-02T09:21:12.507Z,19.20
2017-05-02T09:22:11.732Z,19.20
2017-05-02T09:23:12.510Z,19.20
2017-05-02T09:24:12.300Z,19.20
2017-05-02T09:25:11.895Z,19.20
2017-05-02T09:26:12.189Z,19.20
2017-05-02T09:27:14.967Z,19.20
2017-05-02T09:28:13.850Z,19.20
2017-05-02T09:29:13.717Z,19.30
2017-05-02T09:30:11.875Z,19.30
2017-05-02T09:31:11.860Z,19.30
2017-05-02T09:32:12.094Z,19.30
2017-05-02T09:33:12.743Z,19.30
2017-05-02T09:34:11.797Z,19.30
2017-05-02T09:35:12.580Z,19.30
2017-05-02T09:36:12.700Z,19.30
2017-05-02T09:37:12.281Z,19.30
2017-05-02T09:38:14.373Z,19.30
2017-05-02T09:39:09.171Z,19.30
2017-05-02T09:40:12.825Z,19.30
2017-05-02T09:41:12.784Z,19.30
2017-05-02T09:42:11.847Z,19.30
2017-05-02T09:43:14.512Z,19.30
2017-05-02T09:44:11.953Z,19.30
2017-05-02T09:45:12.739Z,19.40
2017-05-02T09:46:12.748Z,19.40
2017-05-02T09:47:14.166Z,19.30
2017-05-02T09:48:11.794Z,19.40
2017-05-02T09:49:12.647Z,19.40
2017-05-02T09:50:08.301Z,19.40
2017-05-02T09:51:11.982Z,19.40
2017-05-02T09:52:11.131Z,19.40
2017-05-02T09:53:13.025Z,19.40
2017-05-02T09:54:11.632Z,19.40
2017-05-02T09:55:12.252Z,19.40
2017-05-02T09:56:11.897Z,19.40
2017-05-02T09:57:12.240Z,19.40
2017-05-02T09:58:11.383Z,19.40
2017-05-02T09:59:12.073Z,19.40
2017-05-02T10:00:11.072Z,19.40
2017-05-02T10:01:11.302Z,19.40
2017-05-02T10:02:11.332Z,19.40
2017-05-02T10:03:11.502Z,19.40
2017-05-02T10:04:11.684Z,19.40
2017-05-02T10:05:10.420Z,19.40
2017-05-02T10:06:09.510Z,19.40
2017-05-02T10:07:12.075Z,19.40
2017-05-02T10:08:11.183Z,19.40
2017-05-02T10:09:11.296Z,19.40
2017-05-02T10:10:11.413Z,19.40
2017-05-02T10:11:11.610Z,19.40
2017-05-02T10:12:12.314Z,19.40
2017-05-02T10:13:12.342Z,19.50
2017-05-02T10:14:11.241Z,19.40
2017-05-02T10:15:13.144Z,19.40
2017-05-02T10:16:11.211Z,19.40
2017-05-02T10:17:11.455Z,19.50
2017-05-02T10:18:11.625Z,19.40
2017-05-02T10:19:12.567Z,19.40
2017-05-02T10:20:11.565Z,19.40
2017-05-02T10:21:11.786Z,19.40
2017-05-02T10:22:11.902Z,19.50
2017-05-02T10:23:12.273Z,19.50
2017-05-02T10:24:11.154Z,19.50
2017-05-02T10:25:11.264Z,19.50
2017-05-02T10:26:11.300Z,19.50
2017-05-02T10:27:11.451Z,19.50
2017-05-02T10:28:12.142Z,19.50
2017-05-02T10:29:11.949Z,19.50
2017-05-02T10:30:09.457Z,19.50
2017-05-02T10:31:12.585Z,19.50
2017-05-02T10:32:12.202Z,19.50
2017-05-02T10:33:12.894Z,19.50
2017-05-02T10:34:12.585Z,19.50
2017-05-02T10:35:11.639Z,19.50
2017-05-02T10:36:11.602Z,19.50
2017-05-02T10:37:11.727Z,19.50
2017-05-02T10:38:12.503Z,19.50
2017-05-02T10:39:11.776Z,19.50
2017-05-02T10:40:11.966Z,19.50
2017-05-02T10:41:11.051Z,19.50
2017-05-02T10:42:11.590Z,19.50
2017-05-02T10:43:11.806Z,19.50
2017-05-02T10:44:11.925Z,19.50
2017-05-02T10:45:09.227Z,19.50
2017-05-02T10:46:11.633Z,19.50
2017-05-02T10:47:12.761Z,19.60
2017-05-02T10:48:12.212Z,19.50
2017-05-02T10:49:09.956Z,19.60
2017-05-02T10:50:14.086Z,19.50
2017-05-02T10:51:11.779Z,19.50
2017-05-02T10:52:09.727Z,19.60
2017-05-02T10:53:12.488Z,19.60
2017-05-02T10:54:11.688Z,19.60
2017-05-02T10:55:12.393Z,19.60
2017-05-02T10:56:12.339Z,19.60
2017-05-02T10:57:11.310Z,19.60
2017-05-02T10:58:11.947Z,19.60
2017-05-02T10:59:11.393Z,19.60
2017-05-02T11:00:09.914Z,19.60
2017-05-02T11:01:13.602Z,19.60
2017-05-02T11:02:12.592Z,19.60
2017-05-02T11:03:13.043Z,19.60
2017-05-02T11:04:11.734Z,19.60
2017-05-02T11:05:12.735Z,19.60
2017-05-02T11:06:10.176Z,19.60
2017-05-02T11:07:12.661Z,19.60
2017-05-02T11:08:12.089Z,19.60
2017-05-02T11:09:11.901Z,19.60
2017-05-02T11:10:12.265Z,19.60
2017-05-02T11:11:11.352Z,19.60
2017-05-02T11:12:12.324Z,19.60
2017-05-02T11:13:11.413Z,19.60
2017-05-02T11:14:11.658Z,19.60
2017-05-02T11:15:14.421Z,19.60
2017-05-02T11:16:11.666Z,19.60
2017-05-02T11:17:12.675Z,19.60
2017-05-02T11:18:11.822Z,19.60
2017-05-02T11:19:09.780Z,19.60
2017-05-02T11:20:11.263Z,19.60
2017-05-02T11:21:11.377Z,19.60
2017-05-02T11:22:12.284Z,19.60
2017-05-02T11:23:11.376Z,19.60
2017-05-02T11:24:11.583Z,19.60
2017-05-02T11:25:11.759Z,19.60
2017-05-02T11:26:12.440Z,19.60
2017-05-02T11:27:11.532Z,19.60
2017-05-02T11:28:12.264Z,19.60
2017-05-02T11:29:12.968Z,19.60
2017-05-02T11:30:13.798Z,19.60
2017-05-02T11:31:12.411Z,19.60
2017-05-02T11:32:12.024Z,19.60
2017-05-02T11:33:11.594Z,19.70
2017-05-02T11:34:12.318Z,19.60
2017-05-02T11:35:12.207Z,19.60
2017-05-02T11:36:11.408Z,19.60
2017-05-02T11:37:11.496Z,19.60
2017-05-02T11:38:12.099Z,19.60
2017-05-02T11:39:11.255Z,19.60
2017-05-02T11:40:09.899Z,19.60
2017-05-02T11:41:09.804Z,19.60
2017-05-02T11:42:11.923Z,19.60
2017-05-02T11:43:12.714Z,19.60
2017-05-02T11:44:12.783Z,19.60
2017-05-02T11:45:12.615Z,19.60
2017-05-02T11:46:14.342Z,19.60
2017-05-02T11:47:11.505Z,19.60
2017-05-02T11:48:12.379Z,19.60
2017-05-02T11:49:14.107Z,19.60
2017-05-02T11:50:11.123Z,19.60
2017-05-02T11:51:11.845Z,19.60
2017-05-02T11:52:11.916Z,19.60
2017-05-02T11:53:13.497Z,19.70
2017-05-02T11:54:09.260Z,19.60
2017-05-02T11:55:12.814Z,19.60
2017-05-02T11:56:11.838Z,19.60
2017-05-02T11:57:12.194Z,19.60
2017-05-02T11:58:12.531Z,19.70
2017-05-02T11:59:12.358Z,19.70
2017-05-02T12:00:11.792Z,19.70
2017-05-02T12:01:12.301Z,19.70
2017-05-02T12:02:11.936Z,19.60
2017-05-02T12:03:12.876Z,19.60
2017-05-02T12:04:12.009Z,19.60
2017-05-02T12:05:11.869Z,19.60
2017-05-02T12:06:11.995Z,19.60
2017-05-02T12:07:12.021Z,19.70
2017-05-02T12:08:09.688Z,19.70
2017-05-02T12:09:11.584Z,19.60
2017-05-02T12:10:12.532Z,19.70
2017-05-02T12:11:12.246Z,19.70
2017-05-02T12:12:11.290Z,19.70
2017-05-02T12:13:11.815Z,19.70
2017-05-02T12:14:12.007Z,19.70
2017-05-02T12:15:11.474Z,19.70
2017-05-02T12:16:10.170Z,19.70
2017-05-02T12:17:12.775Z,19.70
2017-05-02T12:18:11.877Z,19.70
2017-05-02T12:19:12.772Z,19.70
2017-05-02T12:20:12.609Z,19.70
2017-05-02T12:21:11.706Z,19.70
2017-05-02T12:22:12.728Z,19.70
2017-05-02T12:23:11.970Z,19.60
2017-05-02T12:24:12.882Z,19.70
2017-05-02T12:25:13.967Z,19.70
2017-05-02T12:26:12.216Z,19.70
2017-05-02T12:27:09.969Z,19.60
2017-05-02T12:28:12.143Z,19.60
2017-05-02T12:29:11.282Z,19.60
2017-05-02T12:30:12.089Z,19.60
2017-05-02T12:31:11.804Z,19.60
2017-05-02T12:32:11.979Z,19.60
2017-05-02T12:33:11.571Z,19.60
2017-05-02T12:34:10.100Z,19.60
2017-05-02T12:35:12.595Z,19.60
2017-05-02T12:36:11.644Z,19.60
2017-05-02T12:37:12.302Z,19.60
2017-05-02T12:38:11.416Z,19.60
2017-05-02T12:39:12.170Z,19.60
2017-05-02T12:40:11.266Z,19.60
2017-05-02T12:41:11.923Z,19.60
2017-05-02T12:42:12.078Z,19.60
2017-05-02T12:43:11.227Z,19.60
2017-05-02T12:44:11.335Z,19.60
2017-05-02T12:45:11.508Z,19.60
2017-05-02T12:46:12.061Z,19.60
2017-05-02T12:47:11.128Z,19.60
2017-05-02T12:48:11.225Z,19.60
2017-05-02T12:49:11.522Z,19.60
2017-05-02T12:50:12.353Z,19.60
2017-05-02T12:51:12.465Z,19.60
2017-05-02T12:52:13.199Z,19.60